Tracy, MN

11:09 AM CDT on May 22, 2017 (GMT -0500)
Tracy

Weather History for KTKC - April, 2013

Change the Weather History Date:

Thursday, April 18, 2013

  Actual Average (KMML) Record (KMML)
Temperature  
Mean Temperature 30 °F -  
Max Temperature 31 °F 60 °F 94 °F (1985)
Min Temperature 28 °F 37 °F 16 °F (1953)
Degree Days  
Heating Degree Days 36    
Moisture  
Dew Point 29 °F    
Average Humidity 95    
Maximum Humidity 97    
Minimum Humidity 92    
Precipitation  
Precipitation 0.03 in - - ()
Sea Level Pressure  
Sea Level Pressure 29.77 in    
Wind  
Wind Speed 18 mph (North)    
Max Wind Speed 24 mph    
Max Gust Speed 31 mph    
Visibility 2 miles    
Events Snow    
Averages and records for this station are not official NWS values.
T = Trace of Precipitation, MM = Missing Value Source: NWS Daily Summary

Daily Weather History Graph

Daily Weather History Graph

Search for Another Location

Airport or City:

Trip Planner

Search our weather history database for the weather conditions in past years. The results will help you decide how hot, cold, wet, or windy it might be!

Date:

Astronomy

Apr. 18, 2013 Rise Set
Actual Time 6:33 AM CDT 8:10 PM CDT
Civil Twilight 6:02 AM CDT 8:41 PM CDT
Nautical Twilight 5:25 AM CDT 9:18 PM CDT
Astronomical Twilight 4:46 AM CDT 9:58 PM CDT
Moon 12:43 PM CDT (4/18) 2:28 AM CDT (4/18)
Length of Visible Light 14h 38m
Length of Day
13h 37m
First Quarter, 52% of the Moon is Illuminated
Apr 18
First Quarter
Apr 25
Full
May 2
Last Quarter
May 9
New
May 17
First Quarter

Hourly Weather History & Observations

Time (CDT) Temp. Windchill Dew Point Humidity Pressure Visibility Wind Dir Wind Speed Gust Speed Precip Events Conditions
12:17 AM 31.6 °F 21.2 °F 30.9 °F 97% 29.94 in 3.0 mi North 15.0 mph 18.4 mph N/A Snow Light Snow
12:37 AM 31.6 °F 20.0 °F 30.9 °F 97% 29.92 in 4.0 mi North 18.4 mph - N/A Snow Light Snow
12:58 AM 31.5 °F 20.5 °F 30.7 °F 97% 29.91 in 4.0 mi North 16.1 mph - N/A   Overcast
1:17 AM 31.5 °F 19.4 °F 30.7 °F 97% 29.87 in 7.0 mi North 19.6 mph 24.2 mph N/A   Overcast
1:38 AM 31.5 °F 20.5 °F 30.7 °F 97% 29.89 in 10.0 mi North 16.1 mph - N/A   Overcast
1:57 AM 31.5 °F 20.1 °F 30.7 °F 97% 29.88 in 10.0 mi North 17.3 mph - N/A   Overcast
2:18 AM 31.5 °F 20.5 °F 30.7 °F 97% 29.89 in 10.0 mi North 16.1 mph - N/A   Overcast
2:38 AM 31.5 °F 20.5 °F 30.7 °F 97% 29.88 in 10.0 mi North 16.1 mph - N/A   Overcast
2:58 AM 31.5 °F 20.9 °F 30.6 °F 96% 29.87 in 10.0 mi North 15.0 mph - N/A   Overcast
3:17 AM 31.3 °F 21.6 °F 30.4 °F 96% 29.89 in 10.0 mi North 12.7 mph 18.4 mph N/A   Overcast
3:37 AM 31.5 °F 21.4 °F 30.2 °F 95% 29.92 in 10.0 mi North 13.8 mph - N/A   Overcast
3:58 AM 31.1 °F 20.5 °F 30.0 °F 96% 29.87 in 10.0 mi North 15.0 mph - N/A   Overcast
4:18 AM 31.1 °F 20.5 °F 30.2 °F 96% 29.85 in 5.0 mi North 15.0 mph - N/A   Overcast
4:38 AM 31.1 °F 21.4 °F 30.0 °F 96% 29.87 in 5.0 mi North 12.7 mph - N/A Snow Light Snow
4:57 AM 30.9 °F 19.8 °F 30.0 °F 96% 29.83 in 4.0 mi North 16.1 mph - N/A Snow Light Snow
5:18 AM 30.9 °F 20.7 °F 30.0 °F 96% 29.84 in 4.0 mi North 13.8 mph 20.7 mph N/A Snow Light Snow
5:38 AM 30.7 °F 20.4 °F 29.7 °F 96% 29.82 in 4.0 mi North 13.8 mph - N/A Snow Light Snow
5:58 AM 30.2 °F 19.3 °F 29.3 °F 96% 29.80 in 4.0 mi North 15.0 mph 24.2 mph N/A Snow Light Snow
6:18 AM 30.6 °F 18.6 °F 29.3 °F 95% 29.79 in 4.0 mi North 18.4 mph 23.0 mph N/A Snow Light Snow
6:37 AM 30.4 °F 19.5 °F 29.3 °F 96% 29.82 in 4.0 mi North 15.0 mph 21.9 mph N/A Snow Light Snow
6:58 AM 30.6 °F 18.6 °F 29.3 °F 95% 29.79 in 2.0 mi North 18.4 mph 24.2 mph N/A Snow Light Snow
7:18 AM 30.6 °F 18.2 °F 29.3 °F 95% 29.79 in 1.5 mi North 19.6 mph 25.3 mph N/A Snow Light Snow
7:37 AM 30.7 °F 18.5 °F 29.5 °F 95% 29.79 in 1.8 mi North 19.6 mph 26.5 mph N/A Snow Light Snow
7:58 AM 30.7 °F 18.1 °F 29.7 °F 96% 29.77 in 2.5 mi North 20.7 mph 25.3 mph N/A Snow Light Snow
8:18 AM 30.7 °F 17.8 °F 29.3 °F 94% 29.76 in 1.5 mi North 21.9 mph - N/A Snow Light Snow
8:37 AM 30.6 °F 17.0 °F 29.3 °F 95% 29.75 in 1.0 mi North 24.2 mph 27.6 mph N/A Snow Light Snow
8:57 AM 30.6 °F 17.3 °F 29.1 °F 94% 29.75 in 0.8 mi North 23.0 mph 28.8 mph N/A Snow Light Snow
9:18 AM 30.2 °F 17.4 °F 28.9 °F 95% 29.75 in 0.5 mi North 20.7 mph 26.5 mph N/A Snow Light Snow
9:38 AM 30.2 °F 18.9 °F 28.9 °F 95% 29.77 in 0.8 mi North 16.1 mph 23.0 mph N/A Snow Light Snow
9:58 AM 30.2 °F 18.9 °F 28.9 °F 95% 29.77 in 0.5 mi North 16.1 mph 21.9 mph N/A Snow Light Snow
10:17 AM 30.2 °F 19.3 °F 29.1 °F 96% 29.77 in 0.5 mi North 15.0 mph - N/A Snow Light Snow
10:38 AM 30.6 °F 19.4 °F 29.3 °F 95% 29.77 in 0.5 mi North 16.1 mph 23.0 mph N/A Snow Snow
10:58 AM 30.4 °F 18.4 °F 29.1 °F 95% 29.76 in 0.5 mi North 18.4 mph 21.9 mph N/A Snow Snow
11:17 AM 30.6 °F 19.0 °F 29.1 °F 94% 29.76 in 0.5 mi North 17.3 mph - N/A Snow Snow
11:37 AM 30.7 °F 19.2 °F 29.1 °F 94% 29.75 in 0.2 mi North 17.3 mph 24.2 mph N/A Snow Snow
11:58 AM 30.7 °F 19.6 °F 29.1 °F 94% 29.74 in 0.5 mi North 16.1 mph 21.9 mph 0.01 in Snow Snow
12:18 PM 30.9 °F 21.2 °F 29.3 °F 94% 29.75 in 0.5 mi NNW 12.7 mph - N/A Snow Light Snow
12:38 PM 31.1 °F 18.3 °F 29.3 °F 93% 29.73 in 0.5 mi North 21.9 mph 25.3 mph N/A Snow Light Snow
12:58 PM 31.1 °F 18.9 °F 29.3 °F 93% 29.72 in 0.5 mi North 19.6 mph - N/A Snow Light Snow
1:18 PM 31.5 °F 19.1 °F 29.3 °F 92% 29.71 in 0.5 mi North 20.7 mph 31.1 mph N/A Snow Light Snow
1:38 PM 31.1 °F 18.9 °F 29.3 °F 93% 29.71 in 0.8 mi North 19.6 mph - N/A Snow Light Snow
1:58 PM 31.1 °F 18.9 °F 29.3 °F 93% 29.70 in 0.5 mi North 19.6 mph 29.9 mph 0.01 in Snow Light Snow
2:18 PM 31.1 °F 18.3 °F 29.3 °F 93% 29.69 in 0.5 mi NNW 21.9 mph 27.6 mph N/A Snow Light Snow
2:37 PM 31.1 °F 18.3 °F 29.3 °F 93% 29.68 in 0.5 mi NNW 21.9 mph 29.9 mph N/A Snow Light Snow
2:58 PM 31.5 °F 19.4 °F 29.5 °F 92% 29.70 in 0.5 mi NNW 19.6 mph 28.8 mph N/A Snow Light Snow
3:38 PM 31.1 °F 18.3 °F 29.3 °F 93% 29.69 in 0.5 mi NNW 21.9 mph 29.9 mph 0.01 in Snow Light Snow
3:58 PM 31.1 °F 17.7 °F 29.5 °F 94% 29.69 in 0.5 mi NNW 24.2 mph 29.9 mph 0.01 in Snow Snow
4:18 PM 31.1 °F 18.0 °F 29.5 °F 94% 29.69 in 0.5 mi NNW 23.0 mph 31.1 mph N/A Snow Light Snow
4:38 PM 31.1 °F 18.0 °F 29.7 °F 94% 29.69 in 0.5 mi NNW 23.0 mph 31.1 mph N/A Snow Snow
4:57 PM 31.5 °F 19.4 °F 29.8 °F 94% 29.69 in 0.2 mi NNW 19.6 mph 28.8 mph N/A Snow Snow
5:18 PM 31.1 °F 18.9 °F 29.7 °F 94% 29.69 in 0.5 mi NNW 19.6 mph 26.5 mph N/A Snow Snow
5:38 PM 31.1 °F 18.9 °F 29.7 °F 94% 29.69 in 0.5 mi NNW 19.6 mph 26.5 mph N/A Snow Snow
5:58 PM 31.1 °F 18.3 °F 29.7 °F 94% 29.69 in 0.5 mi NNW 21.9 mph 26.5 mph N/A Snow Snow
6:17 PM 30.9 °F 19.1 °F 29.3 °F 94% 29.70 in 0.5 mi NNW 18.4 mph 25.3 mph N/A Snow Light Snow
6:38 PM 30.7 °F 17.8 °F 29.3 °F 94% 29.70 in 0.8 mi NNW 21.9 mph 27.6 mph N/A Snow Light Snow
6:58 PM 30.2 °F 17.8 °F 28.9 °F 95% 29.71 in 0.5 mi NNW 19.6 mph - N/A Snow Light Snow
7:18 PM 30.2 °F 17.4 °F 29.1 °F 96% 29.71 in 0.8 mi NNW 20.7 mph 27.6 mph N/A Snow Light Snow
7:38 PM 30.2 °F 18.1 °F 29.1 °F 96% 29.72 in 0.8 mi NNW 18.4 mph 28.8 mph N/A Snow Light Snow
7:58 PM 30.2 °F 17.4 °F 29.1 °F 96% 29.72 in 0.5 mi NNW 20.7 mph 25.3 mph N/A Snow Snow
8:17 PM 30.2 °F 18.1 °F 29.1 °F 96% 29.72 in 0.5 mi NNW 18.4 mph 26.5 mph N/A Snow Snow
8:37 PM 30.2 °F 19.3 °F 29.1 °F 96% 29.73 in 1.0 mi NNW 15.0 mph 23.0 mph N/A Snow Snow
8:58 PM 30.0 °F 16.3 °F 28.9 °F 96% 29.73 in 1.0 mi NNW 24.2 mph 29.9 mph N/A Snow Light Snow
9:18 PM 29.7 °F 16.1 °F 28.4 °F 95% 29.73 in 1.5 mi NNW 23.0 mph 27.6 mph N/A Snow Light Snow
9:38 PM 29.3 °F 16.2 °F 28.2 °F 96% 29.74 in 1.2 mi NNW 20.7 mph 27.6 mph N/A Snow Light Snow
9:58 PM 28.9 °F 15.1 °F 27.5 °F 94% 29.74 in 1.0 mi NNW 23.0 mph 26.5 mph N/A Snow Light Snow
10:38 PM 28.6 °F 15.6 °F 27.3 °F 95% 29.74 in 1.8 mi NNW 19.6 mph 25.3 mph N/A Snow Light Snow
10:58 PM 28.4 °F 14.7 °F 27.1 °F 95% 29.73 in 1.8 mi NNW 21.9 mph 26.5 mph N/A Snow Light Snow
11:18 PM 28.4 °F 14.4 °F 27.1 °F 95% 29.72 in 1.8 mi NNW 23.0 mph 27.6 mph N/A Snow Light Snow
11:38 PM 28.4 °F 15.1 °F 27.0 °F 94% 29.72 in 2.0 mi NNW 20.7 mph 26.5 mph N/A Snow Light Snow
11:57 PM 28.0 °F 14.6 °F 26.6 °F 94% 29.71 in 2.0 mi NNW 20.7 mph 25.3 mph N/A Snow Light Snow